createdAt,value
2023-05-11T00:00:17.091Z,1013.13
2023-05-11T00:01:17.093Z,1013.12
2023-05-11T00:02:17.309Z,1013.12
2023-05-11T00:03:17.607Z,1013.15
2023-05-11T00:04:17.682Z,1013.16
2023-05-11T00:05:17.820Z,1013.11
2023-05-11T00:06:17.965Z,1013.13
2023-05-11T00:07:18.147Z,1013.14
2023-05-11T00:08:18.321Z,1013.16
2023-05-11T00:09:18.534Z,1013.10
2023-05-11T00:10:18.885Z,1013.11
2023-05-11T00:11:18.885Z,1013.10
2023-05-11T00:12:19.041Z,1013.15
2023-05-11T00:13:19.217Z,1013.10
2023-05-11T00:14:19.407Z,1013.11
2023-05-11T00:15:19.592Z,1013.16
2023-05-11T00:16:19.836Z,1013.12
2023-05-11T00:17:19.970Z,1013.11
2023-05-11T00:18:20.180Z,1013.10
2023-05-11T00:19:20.430Z,1013.13
2023-05-11T00:20:20.701Z,1013.12
2023-05-11T00:21:20.706Z,1013.13
2023-05-11T00:22:20.841Z,1013.13
2023-05-11T00:23:21.032Z,1013.14
2023-05-11T00:24:21.227Z,1013.15
2023-05-11T00:25:21.374Z,1013.16
2023-05-11T00:26:21.552Z,1013.13
2023-05-11T00:27:21.727Z,1013.15
2023-05-11T00:28:21.932Z,1013.10
2023-05-11T00:29:22.075Z,1013.13
2023-05-11T00:30:22.244Z,1013.09
2023-05-11T00:31:22.493Z,1013.11
2023-05-11T00:32:22.654Z,1013.07
2023-05-11T00:33:22.778Z,1013.08
2023-05-11T00:34:22.948Z,1013.07
2023-05-11T00:35:23.117Z,1013.07
2023-05-11T00:36:23.288Z,1013.05
2023-05-11T00:37:25.243Z,1013.07
2023-05-11T00:38:23.616Z,1013.03
2023-05-11T00:39:23.793Z,1013.06
2023-05-11T00:40:23.985Z,1013.11
2023-05-11T00:41:24.169Z,1013.06
2023-05-11T00:42:24.355Z,1013.07
2023-05-11T00:43:24.513Z,1013.11
2023-05-11T00:44:24.713Z,1013.06
2023-05-11T00:45:24.891Z,1013.07
2023-05-11T00:46:25.063Z,1013.09
2023-05-11T00:47:25.246Z,1013.06
2023-05-11T00:48:25.391Z,1013.07
2023-05-11T00:49:25.561Z,1013.05
2023-05-11T00:50:25.760Z,1013.04
2023-05-11T00:51:25.932Z,1013.03
2023-05-11T00:52:26.117Z,1013.01
2023-05-11T00:53:26.325Z,1013.03
2023-05-11T00:54:26.482Z,1013.01
2023-05-11T00:55:26.636Z,1013.03
2023-05-11T00:56:26.851Z,1012.97
2023-05-11T00:57:26.978Z,1013.01
2023-05-11T00:58:27.191Z,1013.01
2023-05-11T00:59:27.334Z,1013.06
2023-05-11T01:00:27.523Z,1013.01
2023-05-11T01:01:27.671Z,1013.02
2023-05-11T01:02:27.959Z,1013.04
2023-05-11T01:03:28.098Z,1013.00
2023-05-11T01:04:28.230Z,1013.00
2023-05-11T01:05:28.432Z,1013.02
2023-05-11T01:06:28.596Z,1013.06
2023-05-11T01:07:28.790Z,1013.03
2023-05-11T01:08:28.972Z,1013.07
2023-05-11T01:09:29.165Z,1013.05
2023-05-11T01:10:29.338Z,1013.04
2023-05-11T01:11:29.581Z,1012.99
2023-05-11T01:12:29.754Z,1013.01
2023-05-11T01:13:29.893Z,1012.98
2023-05-11T01:14:30.061Z,1012.99
2023-05-11T01:15:30.254Z,1013.00
2023-05-11T01:16:30.416Z,1013.04
2023-05-11T01:17:30.643Z,1012.99
2023-05-11T01:18:30.809Z,1012.99
2023-05-11T01:19:30.913Z,1012.99
2023-05-11T01:20:31.112Z,1013.03
2023-05-11T01:21:31.251Z,1013.03
2023-05-11T01:22:31.429Z,1013.09
2023-05-11T01:23:31.622Z,1013.08
2023-05-11T01:24:31.778Z,1013.10
2023-05-11T01:25:31.932Z,1013.06
2023-05-11T01:26:32.125Z,1013.04
2023-05-11T01:27:32.314Z,1013.07
2023-05-11T01:28:32.520Z,1013.04
2023-05-11T01:29:32.642Z,1013.08
2023-05-11T01:30:32.825Z,1013.08
2023-05-11T01:31:33.055Z,1013.02
2023-05-11T01:32:35.749Z,1013.05
2023-05-11T01:33:33.374Z,1013.07
2023-05-11T01:34:33.555Z,1013.04
2023-05-11T01:35:33.724Z,1013.06
2023-05-11T01:36:33.940Z,1013.05
2023-05-11T01:37:34.080Z,1013.05
2023-05-11T01:38:34.267Z,1013.03
2023-05-11T01:39:34.438Z,1013.04
2023-05-11T01:40:34.668Z,1013.08
2023-05-11T01:41:34.797Z,1013.07
2023-05-11T01:42:34.955Z,1013.10
2023-05-11T01:43:35.133Z,1013.11
2023-05-11T01:44:35.289Z,1013.14
2023-05-11T01:45:35.468Z,1013.16
2023-05-11T01:46:35.804Z,1013.16
2023-05-11T01:47:35.872Z,1013.16
2023-05-11T01:48:35.982Z,1013.14
2023-05-11T01:49:36.165Z,1013.15
2023-05-11T01:50:36.353Z,1013.14
2023-05-11T01:51:36.561Z,1013.16
2023-05-11T01:52:36.718Z,1013.11
2023-05-11T01:53:36.885Z,1013.15
2023-05-11T01:54:37.077Z,1013.15
2023-05-11T01:55:37.231Z,1013.14
2023-05-11T01:56:37.447Z,1013.18
2023-05-11T01:57:37.577Z,1013.20
2023-05-11T01:58:37.746Z,1013.18
2023-05-11T01:59:37.904Z,1013.16
2023-05-11T02:00:38.076Z,1013.16
2023-05-11T02:01:38.339Z,1013.19
2023-05-11T02:02:38.477Z,1013.19
2023-05-11T02:03:38.778Z,1013.24
2023-05-11T02:04:38.809Z,1013.26
2023-05-11T02:05:39.008Z,1013.22
2023-05-11T02:06:39.198Z,1013.27
2023-05-11T02:07:39.325Z,1013.25
2023-05-11T02:08:39.516Z,1013.26
2023-05-11T02:09:39.678Z,1013.27
2023-05-11T02:10:39.859Z,1013.29
2023-05-11T02:11:40.047Z,1013.29
2023-05-11T02:12:40.247Z,1013.31
2023-05-11T02:13:40.372Z,1013.27
2023-05-11T02:14:40.555Z,1013.29
2023-05-11T02:15:40.837Z,1013.29
2023-05-11T02:16:40.933Z,1013.33
2023-05-11T02:17:41.123Z,1013.33
2023-05-11T02:18:41.476Z,1013.32
2023-05-11T02:19:41.480Z,1013.31
2023-05-11T02:20:41.664Z,1013.33
2023-05-11T02:21:41.855Z,1013.31
2023-05-11T02:22:41.999Z,1013.31
2023-05-11T02:23:42.148Z,1013.32
2023-05-11T02:24:42.339Z,1013.34
2023-05-11T02:25:42.498Z,1013.30
2023-05-11T02:26:42.718Z,1013.30
2023-05-11T02:27:42.835Z,1013.35
2023-05-11T02:28:43.026Z,1013.33
2023-05-11T02:29:43.206Z,1013.38
2023-05-11T02:30:43.345Z,1013.36
2023-05-11T02:31:43.592Z,1013.40
2023-05-11T02:32:43.703Z,1013.41
2023-05-11T02:33:43.869Z,1013.37
2023-05-11T02:34:44.079Z,1013.36
2023-05-11T02:35:44.206Z,1013.34
2023-05-11T02:36:44.391Z,1013.34
2023-05-11T02:37:44.561Z,1013.35
2023-05-11T02:38:44.735Z,1013.36
2023-05-11T02:39:44.918Z,1013.34
2023-05-11T02:40:45.101Z,1013.36
2023-05-11T02:41:45.232Z,1013.33
2023-05-11T02:42:45.400Z,1013.39
2023-05-11T02:43:45.576Z,1013.39
2023-05-11T02:44:45.771Z,1013.42
2023-05-11T02:45:45.943Z,1013.42
2023-05-11T02:46:46.085Z,1013.42
2023-05-11T02:47:46.274Z,1013.40
2023-05-11T02:48:46.457Z,1013.43
2023-05-11T02:49:46.643Z,1013.42
2023-05-11T02:50:46.852Z,1013.41
2023-05-11T02:51:46.988Z,1013.42
2023-05-11T02:52:47.169Z,1013.45
2023-05-11T02:53:47.324Z,1013.45
2023-05-11T02:54:47.525Z,1013.41
2023-05-11T02:55:47.661Z,1013.40
2023-05-11T02:56:47.855Z,1013.37
2023-05-11T02:57:48.049Z,1013.42
2023-05-11T02:58:48.225Z,1013.43
2023-05-11T02:59:48.391Z,1013.48
2023-05-11T03:00:48.665Z,1013.47
2023-05-11T03:01:48.877Z,1013.47
2023-05-11T03:02:48.972Z,1013.46
2023-05-11T03:03:49.228Z,1013.46
2023-05-11T03:04:49.294Z,1013.44
2023-05-11T03:05:49.477Z,1013.44
2023-05-11T03:06:49.654Z,1013.43
2023-05-11T03:07:49.848Z,1013.40
2023-05-11T03:08:50.044Z,1013.42
2023-05-11T03:09:50.188Z,1013.41
2023-05-11T03:10:50.391Z,1013.44
2023-05-11T03:11:50.564Z,1013.43
2023-05-11T03:12:50.786Z,1013.45
2023-05-11T03:13:50.936Z,1013.49
2023-05-11T03:14:51.079Z,1013.48
2023-05-11T03:15:51.246Z,1013.46
2023-05-11T03:16:51.482Z,1013.41
2023-05-11T03:17:51.619Z,1013.45
2023-05-11T03:18:51.882Z,1013.42
2023-05-11T03:19:51.959Z,1013.49
2023-05-11T03:20:52.133Z,1013.47
2023-05-11T03:21:52.271Z,1013.43
2023-05-11T03:22:52.432Z,1013.44
2023-05-11T03:23:52.627Z,1013.47
2023-05-11T03:24:52.799Z,1013.44
2023-05-11T03:25:52.953Z,1013.47
2023-05-11T03:26:53.150Z,1013.48
2023-05-11T03:27:53.326Z,1013.48
2023-05-11T03:28:53.482Z,1013.47
2023-05-11T03:29:53.684Z,1013.49
2023-05-11T03:30:53.858Z,1013.45
2023-05-11T03:31:54.048Z,1013.49
2023-05-11T03:32:54.213Z,1013.41
2023-05-11T03:33:54.368Z,1013.47
2023-05-11T03:34:54.536Z,1013.45
2023-05-11T03:35:54.707Z,1013.46
2023-05-11T03:36:54.881Z,1013.48
2023-05-11T03:37:55.025Z,1013.45
2023-05-11T03:38:55.222Z,1013.44
2023-05-11T03:39:55.404Z,1013.41
2023-05-11T03:40:55.556Z,1013.42
2023-05-11T03:41:55.744Z,1013.44
2023-05-11T03:42:55.911Z,1013.41
2023-05-11T03:43:56.079Z,1013.44
2023-05-11T03:44:56.262Z,1013.48
2023-05-11T03:45:56.438Z,1013.47
2023-05-11T03:46:56.598Z,1013.52
2023-05-11T03:47:56.815Z,1013.48
2023-05-11T03:48:56.984Z,1013.46
2023-05-11T03:49:57.185Z,1013.48
2023-05-11T03:50:57.298Z,1013.43
2023-05-11T03:51:57.488Z,1013.46
2023-05-11T03:52:57.677Z,1013.46
2023-05-11T03:53:57.847Z,1013.46
2023-05-11T03:54:58.057Z,1013.43
2023-05-11T03:55:58.177Z,1013.41
2023-05-11T03:56:58.362Z,1013.40
2023-05-11T03:57:58.532Z,1013.44
2023-05-11T03:58:58.735Z,1013.43
2023-05-11T03:59:58.915Z,1013.40
2023-05-11T04:00:59.057Z,1013.48
2023-05-11T04:01:59.241Z,1013.48
2023-05-11T04:02:59.513Z,1013.44
2023-05-11T04:03:59.622Z,1013.47
2023-05-11T04:04:59.754Z,1013.54
2023-05-11T04:05:59.918Z,1013.50
2023-05-11T04:07:00.140Z,1013.51
2023-05-11T04:08:00.277Z,1013.50
2023-05-11T04:09:00.466Z,1013.52
2023-05-11T04:10:00.625Z,1013.53
2023-05-11T04:11:00.854Z,1013.54
2023-05-11T04:12:00.980Z,1013.51
2023-05-11T04:13:01.159Z,1013.50
2023-05-11T04:14:01.376Z,1013.54
2023-05-11T04:15:01.532Z,1013.54
2023-05-11T04:16:01.675Z,1013.51
2023-05-11T04:17:01.871Z,1013.57
2023-05-11T04:18:02.071Z,1013.55
2023-05-11T04:19:02.413Z,1013.53
2023-05-11T04:20:02.377Z,1013.57
2023-05-11T04:21:02.534Z,1013.59
2023-05-11T04:22:02.721Z,1013.57
2023-05-11T04:23:02.877Z,1013.61
2023-05-11T04:24:03.057Z,1013.58
2023-05-11T04:25:03.240Z,1013.60
2023-05-11T04:26:03.385Z,1013.60
2023-05-11T04:27:03.593Z,1013.63
2023-05-11T04:28:03.702Z,1013.60
2023-05-11T04:29:03.939Z,1013.62
2023-05-11T04:30:04.042Z,1013.64
2023-05-11T04:31:04.284Z,1013.65
2023-05-11T04:32:04.443Z,1013.69
2023-05-11T04:33:04.620Z,1013.65
2023-05-11T04:34:04.772Z,1013.67
2023-05-11T04:35:04.936Z,1013.66
2023-05-11T04:36:05.105Z,1013.67
2023-05-11T04:37:05.280Z,1013.68
2023-05-11T04:38:05.418Z,1013.64
2023-05-11T04:39:06.601Z,1013.66
2023-05-11T04:40:05.787Z,1013.71
2023-05-11T04:41:05.945Z,1013.70
2023-05-11T04:42:06.143Z,1013.67
2023-05-11T04:43:06.319Z,1013.70
2023-05-11T04:44:06.495Z,1013.64
2023-05-11T04:45:06.674Z,1013.65
2023-05-11T04:46:06.820Z,1013.70
2023-05-11T04:47:07.090Z,1013.74
2023-05-11T04:48:07.188Z,1013.71
2023-05-11T04:49:07.353Z,1013.73
2023-05-11T04:50:07.549Z,1013.71
2023-05-11T04:51:07.719Z,1013.77
2023-05-11T04:52:07.889Z,1013.74
2023-05-11T04:53:08.056Z,1013.77
2023-05-11T04:54:08.221Z,1013.80
2023-05-11T04:55:08.414Z,1013.76
2023-05-11T04:56:08.580Z,1013.80
2023-05-11T04:57:08.778Z,1013.79
2023-05-11T04:58:08.941Z,1013.80
2023-05-11T04:59:09.090Z,1013.79
2023-05-11T05:00:09.281Z,1013.77
2023-05-11T05:01:09.510Z,1013.78
2023-05-11T05:02:09.591Z,1013.78
2023-05-11T05:03:09.786Z,1013.80
2023-05-11T05:04:10.013Z,1013.78
2023-05-11T05:05:10.082Z,1013.81
2023-05-11T05:06:10.269Z,1013.79
2023-05-11T05:07:10.434Z,1013.80
2023-05-11T05:08:10.607Z,1013.77
2023-05-11T05:09:10.762Z,1013.79
2023-05-11T05:10:10.992Z,1013.78
2023-05-11T05:11:11.152Z,1013.76
2023-05-11T05:12:11.295Z,1013.75
2023-05-11T05:13:11.467Z,1013.76
2023-05-11T05:14:11.666Z,1013.82
2023-05-11T05:15:11.821Z,1013.79
2023-05-11T05:16:12.006Z,1013.79
2023-05-11T05:17:12.231Z,1013.80
2023-05-11T05:18:12.400Z,1013.82
2023-05-11T05:19:12.521Z,1013.80
2023-05-11T05:20:12.690Z,1013.84
2023-05-11T05:21:12.824Z,1013.82
2023-05-11T05:22:13.033Z,1013.82
2023-05-11T05:23:13.186Z,1013.82
2023-05-11T05:24:13.406Z,1013.87
2023-05-11T05:25:13.513Z,1013.85
2023-05-11T05:26:13.679Z,1013.84
2023-05-11T05:27:13.881Z,1013.80
2023-05-11T05:28:14.065Z,1013.85
2023-05-11T05:29:14.242Z,1013.83
2023-05-11T05:30:14.379Z,1013.82
2023-05-11T05:31:14.561Z,1013.83
2023-05-11T05:32:14.718Z,1013.89
2023-05-11T05:33:14.902Z,1013.90
2023-05-11T05:34:16.649Z,1013.89
2023-05-11T05:35:15.199Z,1013.86
2023-05-11T05:36:15.381Z,1013.91
2023-05-11T05:37:15.534Z,1013.90
2023-05-11T05:38:15.782Z,1013.90
2023-05-11T05:39:15.906Z,1013.90
2023-05-11T05:40:16.240Z,1013.93
2023-05-11T05:41:16.200Z,1013.95
2023-05-11T05:42:16.383Z,1013.93
2023-05-11T05:43:16.546Z,1013.89
2023-05-11T05:44:16.727Z,1013.91
2023-05-11T05:45:16.901Z,1013.92
2023-05-11T05:46:17.123Z,1013.92
2023-05-11T05:47:17.221Z,1013.91
2023-05-11T05:48:17.421Z,1013.97
2023-05-11T05:49:17.551Z,1013.95
2023-05-11T05:50:17.866Z,1013.98
2023-05-11T05:51:17.922Z,1013.98
2023-05-11T05:52:18.104Z,1013.97
2023-05-11T05:53:18.255Z,1014.02
2023-05-11T05:54:18.460Z,1013.98
2023-05-11T05:55:18.623Z,1014.03
2023-05-11T05:56:18.794Z,1014.02
2023-05-11T05:57:18.973Z,1014.03
2023-05-11T05:58:19.148Z,1014.05
2023-05-11T05:59:19.301Z,1014.06
2023-05-11T06:00:19.745Z,1014.10
2023-05-11T06:01:19.633Z,1014.04
2023-05-11T06:02:19.830Z,1014.04
2023-05-11T06:03:20.000Z,1014.08
2023-05-11T06:04:20.283Z,1014.03
2023-05-11T06:05:20.286Z,1014.03
2023-05-11T06:06:20.473Z,1014.06
2023-05-11T06:07:20.652Z,1014.08
2023-05-11T06:08:20.799Z,1014.11
2023-05-11T06:09:20.957Z,1014.07
2023-05-11T06:10:21.121Z,1014.13
2023-05-11T06:11:21.303Z,1014.12
2023-05-11T06:12:21.469Z,1014.10
2023-05-11T06:13:21.640Z,1014.19
2023-05-11T06:14:21.796Z,1014.15
2023-05-11T06:15:21.953Z,1014.11
2023-05-11T06:16:22.176Z,1014.15
2023-05-11T06:17:22.318Z,1014.08
2023-05-11T06:18:22.485Z,1014.12
2023-05-11T06:19:22.633Z,1014.12
2023-05-11T06:20:22.793Z,1014.13
2023-05-11T06:21:22.962Z,1014.14
2023-05-11T06:22:23.153Z,1014.14
2023-05-11T06:23:23.298Z,1014.16
2023-05-11T06:24:23.470Z,1014.07
2023-05-11T06:25:23.634Z,1014.16
2023-05-11T06:26:23.797Z,1014.10
2023-05-11T06:27:23.991Z,1014.13
2023-05-11T06:28:24.161Z,1014.12
2023-05-11T06:29:24.360Z,1014.16
2023-05-11T06:30:24.511Z,1014.14
2023-05-11T06:31:24.767Z,1014.13
2023-05-11T06:32:24.869Z,1014.14
2023-05-11T06:33:25.013Z,1014.17
2023-05-11T06:34:25.180Z,1014.17
2023-05-11T06:35:25.364Z,1014.11
2023-05-11T06:36:25.541Z,1014.17
2023-05-11T06:37:25.713Z,1014.16
2023-05-11T06:38:25.896Z,1014.15
2023-05-11T06:39:26.058Z,1014.17
2023-05-11T06:40:26.250Z,1014.13
2023-05-11T06:41:26.445Z,1014.11
2023-05-11T06:42:26.598Z,1014.07
2023-05-11T06:43:26.741Z,1014.11
2023-05-11T06:44:26.901Z,1014.08
2023-05-11T06:45:27.270Z,1014.04
2023-05-11T06:46:27.375Z,1014.06
2023-05-11T06:47:27.494Z,1014.10
2023-05-11T06:48:27.578Z,1014.05
2023-05-11T06:49:27.757Z,1014.01
2023-05-11T06:50:28.179Z,1014.09
2023-05-11T06:51:28.090Z,1014.05
2023-05-11T06:52:28.239Z,1014.08
2023-05-11T06:53:28.427Z,1014.12
2023-05-11T06:54:28.725Z,1014.05
2023-05-11T06:55:28.751Z,1014.09
2023-05-11T06:56:28.983Z,1014.09
2023-05-11T06:57:29.097Z,1014.12
2023-05-11T06:58:29.267Z,1014.09
2023-05-11T06:59:29.486Z,1014.08
2023-05-11T07:00:29.629Z,1014.13
2023-05-11T07:01:29.803Z,1014.07
2023-05-11T07:02:29.954Z,1014.10
2023-05-11T07:03:30.072Z,1014.11
2023-05-11T07:04:30.291Z,1014.10
2023-05-11T07:05:30.457Z,1014.06
2023-05-11T07:06:30.562Z,1014.07
2023-05-11T07:07:30.727Z,1014.08
2023-05-11T07:08:30.904Z,1014.11
2023-05-11T07:09:31.069Z,1014.09
2023-05-11T07:10:31.260Z,1014.08
2023-05-11T07:11:31.428Z,1014.13
2023-05-11T07:12:31.570Z,1014.17
2023-05-11T07:13:31.749Z,1014.16
2023-05-11T07:14:31.926Z,1014.11
2023-05-11T07:15:32.073Z,1014.10
2023-05-11T07:16:32.293Z,1014.14
2023-05-11T07:17:32.453Z,1014.12
2023-05-11T07:18:32.624Z,1014.14
2023-05-11T07:19:32.743Z,1014.11
2023-05-11T07:20:32.935Z,1014.07
2023-05-11T07:21:33.099Z,1014.06
2023-05-11T07:22:33.307Z,1014.09
2023-05-11T07:23:33.452Z,1014.14
2023-05-11T07:24:33.625Z,1014.08
2023-05-11T07:25:33.810Z,1014.04
2023-05-11T07:26:33.978Z,1014.05
2023-05-11T07:27:34.146Z,1014.06
2023-05-11T07:28:34.345Z,1014.07
2023-05-11T07:29:34.510Z,1014.07
2023-05-11T07:30:34.690Z,1014.04
2023-05-11T07:31:34.881Z,1014.08
2023-05-11T07:32:35.046Z,1014.11
2023-05-11T07:33:35.218Z,1014.04
2023-05-11T07:34:35.399Z,1014.08
2023-05-11T07:35:35.565Z,1014.07
2023-05-11T07:36:35.744Z,1014.09
2023-05-11T07:37:35.922Z,1014.10
2023-05-11T07:38:36.113Z,1014.04
2023-05-11T07:39:36.258Z,1014.03
2023-05-11T07:40:36.422Z,1014.02
2023-05-11T07:41:36.585Z,1014.03
2023-05-11T07:42:36.752Z,1014.02
2023-05-11T07:43:36.931Z,1014.02
2023-05-11T07:44:37.100Z,1014.05
2023-05-11T07:45:37.284Z,1014.07
2023-05-11T07:46:37.552Z,1014.04
2023-05-11T07:47:37.650Z,1014.02
2023-05-11T07:48:37.792Z,1014.03
2023-05-11T07:49:43.476Z,1014.06
2023-05-11T07:50:39.134Z,1014.05
2023-05-11T07:51:38.340Z,1014.05
2023-05-11T07:52:38.484Z,1014.01
2023-05-11T07:53:38.644Z,1014.07
2023-05-11T07:54:38.833Z,1014.07
2023-05-11T07:55:38.987Z,1014.08
2023-05-11T07:56:39.146Z,1014.06
2023-05-11T07:57:39.317Z,1014.03
2023-05-11T07:58:39.482Z,1014.03
2023-05-11T07:59:39.668Z,1014.04
2023-05-11T08:00:39.815Z,1014.06
2023-05-11T08:01:40.087Z,1014.07
2023-05-11T08:02:40.198Z,1014.08
2023-05-11T08:03:40.319Z,1014.07
2023-05-11T08:04:40.500Z,1014.04
2023-05-11T08:05:40.674Z,1014.06
2023-05-11T08:06:40.836Z,1014.06
2023-05-11T08:07:41.644Z,1014.00
2023-05-11T08:08:41.184Z,1014.04
2023-05-11T08:09:41.368Z,1014.02
2023-05-11T08:10:41.521Z,1014.03
2023-05-11T08:11:41.684Z,1013.95
2023-05-11T08:12:41.881Z,1014.04
2023-05-11T08:13:42.043Z,1014.02
2023-05-11T08:14:42.252Z,1014.04
2023-05-11T08:15:42.419Z,1014.08
2023-05-11T08:16:42.584Z,1014.03
2023-05-11T08:17:42.771Z,1014.03
2023-05-11T08:18:42.930Z,1014.04
2023-05-11T08:19:43.155Z,1014.05
2023-05-11T08:20:43.263Z,1014.02
2023-05-11T08:21:43.429Z,1014.02
2023-05-11T08:22:43.603Z,1013.99
2023-05-11T08:23:45.216Z,1014.02
2023-05-11T08:24:43.967Z,1014.01
2023-05-11T08:25:44.151Z,1014.00
2023-05-11T08:26:44.318Z,1014.03
2023-05-11T08:27:44.510Z,1014.08
2023-05-11T08:28:44.670Z,1014.09
2023-05-11T08:29:44.853Z,1014.12
2023-05-11T08:30:45.011Z,1014.05
2023-05-11T08:31:45.205Z,1014.04
2023-05-11T08:33:45.695Z,1014.06
2023-05-11T08:34:45.810Z,1013.99
2023-05-11T08:35:45.884Z,1014.03
2023-05-11T08:36:46.055Z,1014.00
2023-05-11T08:37:46.240Z,1013.99
2023-05-11T08:38:46.417Z,1014.01
2023-05-11T08:39:47.922Z,1014.08
2023-05-11T08:40:46.736Z,1013.96
2023-05-11T08:41:46.913Z,1014.03
2023-05-11T08:42:47.067Z,1014.02
2023-05-11T08:43:47.280Z,1013.97
2023-05-11T08:44:47.446Z,1014.02
2023-05-11T08:45:47.625Z,1014.01
2023-05-11T08:46:47.746Z,1014.00
2023-05-11T08:47:47.973Z,1014.01
2023-05-11T08:48:48.092Z,1014.00
2023-05-11T08:49:48.269Z,1014.02
2023-05-11T08:50:48.455Z,1014.01
2023-05-11T08:51:48.617Z,1014.00
2023-05-11T08:52:48.789Z,1014.02
2023-05-11T08:53:48.991Z,1014.05
2023-05-11T08:54:49.162Z,1014.07
2023-05-11T08:55:49.343Z,1014.04
2023-05-11T08:56:49.489Z,1013.98
2023-05-11T08:57:49.679Z,1013.94
2023-05-11T08:58:49.859Z,1013.98
2023-05-11T08:59:49.987Z,1013.98
2023-05-11T09:00:50.190Z,1013.96
2023-05-11T09:01:50.400Z,1013.89
2023-05-11T09:02:50.558Z,1013.92
2023-05-11T09:03:50.683Z,1013.93
2023-05-11T09:04:50.875Z,1013.90
2023-05-11T09:05:51.113Z,1013.92
2023-05-11T09:06:51.188Z,1013.91
2023-05-11T09:07:51.359Z,1013.89
2023-05-11T09:08:51.563Z,1013.87
2023-05-11T09:09:51.698Z,1013.91
2023-05-11T09:10:51.899Z,1013.92
2023-05-11T09:11:52.051Z,1013.91
2023-05-11T09:12:52.227Z,1013.88
2023-05-11T09:13:52.426Z,1013.82
2023-05-11T09:14:52.576Z,1013.85
2023-05-11T09:15:52.771Z,1013.85
2023-05-11T09:16:52.957Z,1013.84
2023-05-11T09:17:53.198Z,1013.85
2023-05-11T09:18:53.279Z,1013.86
2023-05-11T09:19:53.428Z,1013.88
2023-05-11T09:20:53.617Z,1013.90
2023-05-11T09:21:53.772Z,1013.95
2023-05-11T09:22:53.934Z,1013.89
2023-05-11T09:23:54.122Z,1013.90
2023-05-11T09:24:54.281Z,1013.94
2023-05-11T09:25:54.445Z,1013.87
2023-05-11T09:26:54.587Z,1013.85
2023-05-11T09:27:54.777Z,1013.84
2023-05-11T09:29:02.941Z,1013.85
2023-05-11T09:29:56.092Z,1013.86
2023-05-11T09:30:55.295Z,1013.83
2023-05-11T09:31:55.464Z,1013.83
2023-05-11T09:32:55.680Z,1013.85
2023-05-11T09:33:55.809Z,1013.84
2023-05-11T09:34:55.962Z,1013.86
2023-05-11T09:35:56.163Z,1013.82
2023-05-11T09:36:56.323Z,1013.82
2023-05-11T09:37:56.495Z,1013.83
2023-05-11T09:38:57.300Z,1013.79
2023-05-11T09:40:57.042Z,1013.78
2023-05-11T09:41:57.205Z,1013.82
2023-05-11T09:42:57.472Z,1013.81
2023-05-11T09:43:57.550Z,1013.81
2023-05-11T09:44:57.768Z,1013.80
2023-05-11T09:45:57.977Z,1013.79
2023-05-11T09:46:58.075Z,1013.80
2023-05-11T09:47:58.289Z,1013.77
2023-05-11T09:48:58.396Z,1013.76
2023-05-11T09:49:58.559Z,1013.72
2023-05-11T09:50:58.729Z,1013.75
2023-05-11T09:51:58.908Z,1013.77
2023-05-11T09:52:59.058Z,1013.81
2023-05-11T09:53:59.249Z,1013.70
2023-05-11T09:54:59.402Z,1013.71
2023-05-11T09:55:59.599Z,1013.71
2023-05-11T09:56:59.779Z,1013.74
2023-05-11T09:57:59.943Z,1013.70
2023-05-11T09:59:00.113Z,1013.63
2023-05-11T10:00:00.403Z,1013.65
2023-05-11T10:01:00.469Z,1013.67
2023-05-11T10:02:00.777Z,1013.69
2023-05-11T10:03:00.916Z,1013.64
2023-05-11T10:04:09.587Z,1013.68
2023-05-11T10:05:02.180Z,1013.70
2023-05-11T10:06:01.369Z,1013.61
2023-05-11T10:07:01.519Z,1013.58
2023-05-11T10:08:01.690Z,1013.65
2023-05-11T10:09:01.852Z,1013.61
2023-05-11T10:10:02.071Z,1013.56
2023-05-11T10:11:02.232Z,1013.64
2023-05-11T10:12:02.385Z,1013.69
2023-05-11T10:13:02.590Z,1013.55
2023-05-11T10:14:02.711Z,1013.55
2023-05-11T10:15:02.911Z,1013.56
2023-05-11T10:16:03.125Z,1013.57
2023-05-11T10:17:03.262Z,1013.55
2023-05-11T10:18:03.464Z,1013.51
2023-05-11T10:19:03.682Z,1013.47
2023-05-11T10:20:03.804Z,1013.48
2023-05-11T10:21:03.998Z,1013.50
2023-05-11T10:22:04.193Z,1013.49
2023-05-11T10:23:04.319Z,1013.51
2023-05-11T10:24:04.534Z,1013.46
2023-05-11T10:25:04.678Z,1013.46
2023-05-11T10:26:04.852Z,1013.47
2023-05-11T10:27:05.009Z,1013.44
2023-05-11T10:28:05.150Z,1013.45
2023-05-11T10:29:05.308Z,1013.43
2023-05-11T10:30:05.573Z,1013.40
2023-05-11T10:31:05.650Z,1013.43
2023-05-11T10:32:05.907Z,1013.35
2023-05-11T10:33:06.029Z,1013.43
2023-05-11T10:34:06.155Z,1013.44
2023-05-11T10:35:06.317Z,1013.46
2023-05-11T10:36:06.467Z,1013.37
2023-05-11T10:37:06.699Z,1013.40
2023-05-11T10:38:06.841Z,1013.38
2023-05-11T10:39:06.999Z,1013.41
2023-05-11T10:40:07.250Z,1013.43
2023-05-11T10:41:07.357Z,1013.43
2023-05-11T10:42:07.557Z,1013.34
2023-05-11T10:43:07.722Z,1013.43
2023-05-11T10:44:07.885Z,1013.36
2023-05-11T10:45:08.079Z,1013.36
2023-05-11T10:46:08.252Z,1013.40
2023-05-11T10:47:08.404Z,1013.31
2023-05-11T10:48:08.617Z,1013.35
2023-05-11T10:49:08.747Z,1013.40
2023-05-11T10:50:08.916Z,1013.43
2023-05-11T10:51:09.082Z,1013.40
2023-05-11T10:52:09.256Z,1013.37
2023-05-11T10:53:09.433Z,1013.35
2023-05-11T10:54:09.613Z,1013.39
2023-05-11T10:55:09.778Z,1013.37
2023-05-11T10:56:09.994Z,1013.33
2023-05-11T10:57:10.157Z,1013.28
2023-05-11T10:58:10.391Z,1013.28
2023-05-11T10:59:10.484Z,1013.24
2023-05-11T11:00:10.748Z,1013.25
2023-05-11T11:01:10.933Z,1013.30
2023-05-11T11:02:11.022Z,1013.22
2023-05-11T11:03:11.191Z,1013.27
2023-05-11T11:04:11.351Z,1013.32
2023-05-11T11:05:11.548Z,1013.21
2023-05-11T11:06:11.692Z,1013.30
2023-05-11T11:07:11.860Z,1013.29
2023-05-11T11:08:12.088Z,1013.23
2023-05-11T11:09:12.228Z,1013.30
2023-05-11T11:10:12.417Z,1013.28
2023-05-11T11:11:12.575Z,1013.28
2023-05-11T11:12:12.736Z,1013.36
2023-05-11T11:13:12.921Z,1013.31
2023-05-11T11:14:13.093Z,1013.23
2023-05-11T11:15:13.266Z,1013.26
2023-05-11T11:16:16.101Z,1013.19
2023-05-11T11:17:13.699Z,1013.25
2023-05-11T11:18:13.836Z,1013.28
2023-05-11T11:19:13.959Z,1013.29
2023-05-11T11:20:14.145Z,1013.27
2023-05-11T11:21:14.309Z,1013.25
2023-05-11T11:22:14.490Z,1013.27
2023-05-11T11:23:14.620Z,1013.21
2023-05-11T11:24:14.820Z,1013.27
2023-05-11T11:25:14.989Z,1013.24
2023-05-11T11:26:15.155Z,1013.28
2023-05-11T11:27:15.344Z,1013.23
2023-05-11T11:28:15.498Z,1013.29
2023-05-11T11:29:15.657Z,1013.28
2023-05-11T11:30:15.908Z,1013.22
2023-05-11T11:31:16.057Z,1013.15
2023-05-11T11:32:16.215Z,1013.19
2023-05-11T11:33:16.411Z,1013.18
2023-05-11T11:34:16.564Z,1013.25
2023-05-11T11:35:16.913Z,1013.14
2023-05-11T11:36:16.891Z,1013.19
2023-05-11T11:37:17.101Z,1013.17
2023-05-11T11:38:17.205Z,1013.17
2023-05-11T11:39:17.394Z,1013.22
2023-05-11T11:40:17.588Z,1013.24
2023-05-11T11:41:18.714Z,1013.24
2023-05-11T11:42:17.924Z,1013.17
2023-05-11T11:43:18.088Z,1013.17
2023-05-11T11:44:18.244Z,1013.19
2023-05-11T11:45:18.580Z,1013.25
2023-05-11T11:46:18.602Z,1013.27
2023-05-11T11:47:18.748Z,1013.20
2023-05-11T11:48:18.925Z,1013.19
2023-05-11T11:49:19.097Z,1013.23
2023-05-11T11:50:19.301Z,1013.19
2023-05-11T11:51:19.452Z,1013.19
2023-05-11T11:52:19.658Z,1013.26
2023-05-11T11:53:19.824Z,1013.31
2023-05-11T11:54:19.996Z,1013.27
2023-05-11T11:55:20.450Z,1013.27
2023-05-11T11:56:20.315Z,1013.28
2023-05-11T11:57:20.480Z,1013.26
2023-05-11T11:58:20.670Z,1013.24
2023-05-11T11:59:20.818Z,1013.30
2023-05-11T12:00:21.013Z,1013.25
2023-05-11T12:01:21.206Z,1013.29
2023-05-11T12:02:21.361Z,1013.32
2023-05-11T12:03:21.568Z,1013.24
2023-05-11T12:04:21.811Z,1013.24
2023-05-11T12:05:22.195Z,1013.28
2023-05-11T12:06:22.696Z,1013.30
2023-05-11T12:07:22.193Z,1013.28
2023-05-11T12:08:22.411Z,1013.22
2023-05-11T12:09:22.561Z,1013.28